createdAt,value
2023-03-19T00:00:57.761Z,0
2023-03-19T00:03:57.042Z,0.6666666666666666
2023-03-19T00:06:57.077Z,0
2023-03-19T00:09:57.719Z,0
2023-03-19T00:12:57.469Z,0
2023-03-19T00:15:57.845Z,0
2023-03-19T00:18:57.308Z,0.3333333333333333
2023-03-19T00:21:57.650Z,0
2023-03-19T00:24:56.922Z,0
2023-03-19T00:27:57.048Z,0
2023-03-19T00:30:57.600Z,0
2023-03-19T00:33:57.110Z,0.3333333333333333
2023-03-19T00:36:57.733Z,0
2023-03-19T00:39:56.998Z,0.6666666666666666
2023-03-19T00:42:57.299Z,0
2023-03-19T00:45:57.087Z,0
2023-03-19T00:48:57.457Z,0.3333333333333333
2023-03-19T00:51:56.826Z,0
2023-03-19T00:54:58.057Z,0
2023-03-19T00:57:57.077Z,0.3333333333333333
2023-03-19T01:00:57.465Z,0
2023-03-19T01:03:57.792Z,0
2023-03-19T01:06:56.818Z,0
2023-03-19T01:09:57.598Z,0
2023-03-19T01:12:56.978Z,0
2023-03-19T01:15:57.493Z,0
2023-03-19T01:18:57.485Z,0
2023-03-19T01:21:57.668Z,0
2023-03-19T01:24:57.289Z,0
2023-03-19T01:27:57.225Z,0
2023-03-19T01:30:58.113Z,0
2023-03-19T01:33:57.065Z,0
2023-03-19T01:36:57.053Z,0
2023-03-19T01:39:57.265Z,0
2023-03-19T01:42:57.242Z,0
2023-03-19T01:45:57.005Z,0
2023-03-19T01:48:57.866Z,0
2023-03-19T01:51:57.085Z,0
2023-03-19T01:54:57.672Z,0
2023-03-19T01:57:57.512Z,1
2023-03-19T02:00:57.424Z,0
2023-03-19T02:03:57.608Z,0.3333333333333333
2023-03-19T02:06:56.766Z,0.3333333333333333
2023-03-19T02:09:56.941Z,0
2023-03-19T02:12:57.465Z,0
2023-03-19T02:15:57.492Z,0
2023-03-19T02:18:57.444Z,0
2023-03-19T02:21:56.684Z,0
2023-03-19T02:24:57.460Z,0
2023-03-19T02:27:57.216Z,0
2023-03-19T02:30:57.270Z,0.6666666666666666
2023-03-19T02:33:57.126Z,0
2023-03-19T02:36:57.449Z,0
2023-03-19T02:39:57.118Z,0
2023-03-19T02:42:58.107Z,0
2023-03-19T02:45:57.633Z,0
2023-03-19T02:48:57.516Z,0.3333333333333333
2023-03-19T02:51:56.996Z,0
2023-03-19T02:54:57.112Z,0.6666666666666666
2023-03-19T02:57:57.444Z,0
2023-03-19T03:00:57.099Z,0
2023-03-19T03:03:57.717Z,0
2023-03-19T03:06:56.921Z,0.3333333333333333
2023-03-19T03:09:56.756Z,0
2023-03-19T03:12:57.528Z,0
2023-03-19T03:15:56.962Z,0
2023-03-19T03:18:56.972Z,0
2023-03-19T03:21:57.597Z,0
2023-03-19T03:24:56.840Z,0
2023-03-19T03:27:57.304Z,0
2023-03-19T03:30:57.390Z,0.6666666666666666
2023-03-19T03:34:00.261Z,0.3333333333333333
2023-03-19T03:36:56.840Z,0
2023-03-19T03:39:57.384Z,0.3333333333333333
2023-03-19T03:42:57.403Z,0
2023-03-19T03:45:57.223Z,0
2023-03-19T03:48:56.660Z,0
2023-03-19T03:51:56.989Z,0
2023-03-19T03:54:57.174Z,0
2023-03-19T03:57:57.135Z,0
2023-03-19T04:00:58.081Z,0
2023-03-19T04:03:56.933Z,0
2023-03-19T04:06:56.902Z,0
2023-03-19T04:09:57.344Z,0
2023-03-19T04:12:57.032Z,0
2023-03-19T04:15:58.231Z,0
2023-03-19T04:18:58.045Z,0.3333333333333333
2023-03-19T04:21:57.481Z,0
2023-03-19T04:24:56.995Z,0.6666666666666666
2023-03-19T04:27:57.703Z,0.6666666666666666
2023-03-19T04:30:58.005Z,0.3333333333333333
2023-03-19T04:33:57.244Z,0
2023-03-19T04:36:56.727Z,0
2023-03-19T04:39:57.051Z,0
2023-03-19T04:42:57.305Z,0
2023-03-19T04:45:56.899Z,0
2023-03-19T04:48:57.607Z,0.6666666666666666
2023-03-19T04:51:57.129Z,0
2023-03-19T04:54:57.052Z,0
2023-03-19T04:57:56.704Z,1
2023-03-19T05:00:57.098Z,0
2023-03-19T05:03:57.233Z,0
2023-03-19T05:06:57.059Z,0
2023-03-19T05:09:57.847Z,0
2023-03-19T05:12:57.854Z,2
2023-03-19T05:15:57.084Z,1.6666666666666667
2023-03-19T05:18:57.019Z,1.6666666666666667
2023-03-19T05:21:57.547Z,2
2023-03-19T05:24:56.833Z,2.6666666666666665
2023-03-19T05:27:57.395Z,2
2023-03-19T05:30:57.606Z,3
2023-03-19T05:33:56.745Z,3.6666666666666665
2023-03-19T05:36:56.740Z,3.6666666666666665
2023-03-19T05:39:57.320Z,4.333333333333333
2023-03-19T05:42:57.603Z,4.333333333333333
2023-03-19T05:45:57.021Z,4.666666666666667
2023-03-19T05:48:56.799Z,6.333333333333333
2023-03-19T05:51:57.626Z,5.333333333333333
2023-03-19T05:54:57.140Z,5.666666666666667
2023-03-19T05:57:56.649Z,7
2023-03-19T06:00:57.467Z,8
2023-03-19T06:03:57.209Z,7.333333333333333
2023-03-19T06:06:57.745Z,8
2023-03-19T06:09:56.851Z,9.333333333333334
2023-03-19T06:12:57.103Z,11.333333333333334
2023-03-19T06:15:57.455Z,12
2023-03-19T06:18:57.013Z,11.333333333333334
2023-03-19T06:21:57.515Z,12
2023-03-19T06:24:57.014Z,12.666666666666666
2023-03-19T06:27:56.848Z,14
2023-03-19T06:30:57.538Z,17
2023-03-19T06:33:57.992Z,22
2023-03-19T06:36:56.825Z,30.666666666666668
2023-03-19T06:39:57.516Z,42.666666666666664
2023-03-19T06:42:56.900Z,57
2023-03-19T06:45:57.867Z,69
2023-03-19T06:48:57.655Z,81
2023-03-19T06:51:57.002Z,91
2023-03-19T06:54:56.924Z,100.33333333333333
2023-03-19T06:57:57.340Z,103
2023-03-19T07:00:57.882Z,96.66666666666667
2023-03-19T07:03:57.441Z,87.66666666666667
2023-03-19T07:06:57.486Z,79.33333333333333
2023-03-19T07:09:57.420Z,79
2023-03-19T07:12:57.325Z,86
2023-03-19T07:15:57.197Z,98.66666666666667
2023-03-19T07:18:56.944Z,103.66666666666667
2023-03-19T07:21:57.299Z,102.66666666666667
2023-03-19T07:24:57.257Z,102
2023-03-19T07:27:57.959Z,101.33333333333333
2023-03-19T07:30:56.957Z,106
2023-03-19T07:33:57.505Z,114.33333333333333
2023-03-19T07:36:56.804Z,123
2023-03-19T07:39:57.884Z,134
2023-03-19T07:42:57.109Z,148.33333333333334
2023-03-19T07:45:58.026Z,168.33333333333334
2023-03-19T07:48:57.066Z,179.33333333333334
2023-03-19T07:51:57.417Z,181
2023-03-19T07:54:56.782Z,189
2023-03-19T07:57:56.962Z,212
2023-03-19T08:00:57.554Z,244.66666666666666
2023-03-19T08:03:57.256Z,273.3333333333333
2023-03-19T08:06:57.262Z,296
2023-03-19T08:09:57.881Z,321.3333333333333
2023-03-19T08:12:57.548Z,340
2023-03-19T08:15:57.616Z,351
2023-03-19T08:18:57.473Z,359.6666666666667
2023-03-19T08:21:57.211Z,365.6666666666667
2023-03-19T08:24:57.373Z,377.6666666666667
2023-03-19T08:27:57.271Z,415.6666666666667
2023-03-19T08:30:58.343Z,470
2023-03-19T08:33:57.839Z,510.6666666666667
2023-03-19T08:36:56.964Z,544.6666666666666
2023-03-19T08:39:57.051Z,579.6666666666666
2023-03-19T08:42:57.270Z,617
2023-03-19T08:45:57.942Z,655.6666666666666
2023-03-19T08:48:56.478Z,693.6666666666666
2023-03-19T08:51:56.935Z,727
2023-03-19T08:54:57.107Z,748.3333333333334
2023-03-19T08:57:57.834Z,759.3333333333334
2023-03-19T09:00:57.423Z,760.6666666666666
2023-03-19T09:03:57.134Z,766.3333333333334
2023-03-19T09:06:56.869Z,775.6666666666666
2023-03-19T09:09:57.882Z,785.3333333333334
2023-03-19T09:12:57.576Z,795.6666666666666
2023-03-19T09:15:57.572Z,788.3333333333334
2023-03-19T09:18:59.320Z,791.3333333333334
2023-03-19T09:21:57.040Z,782.6666666666666
2023-03-19T09:24:57.736Z,750.6666666666666
2023-03-19T09:27:56.623Z,713.6666666666666
2023-03-19T09:30:57.558Z,743
2023-03-19T09:33:56.742Z,773.3333333333334
2023-03-19T09:36:57.555Z,767.6666666666666
2023-03-19T09:39:57.303Z,728
2023-03-19T09:42:57.156Z,682.6666666666666
2023-03-19T09:45:57.164Z,687.3333333333334
2023-03-19T09:48:57.818Z,706
2023-03-19T09:51:57.587Z,731.6666666666666
2023-03-19T09:54:57.265Z,791
2023-03-19T09:57:57.101Z,843.6666666666666
2023-03-19T10:00:57.777Z,866.6666666666666
2023-03-19T10:03:57.227Z,881
2023-03-19T10:06:56.937Z,886.3333333333334
2023-03-19T10:09:58.057Z,891.3333333333334
2023-03-19T10:12:56.793Z,903.6666666666666
2023-03-19T10:15:57.791Z,904
2023-03-19T10:18:58.134Z,908
2023-03-19T10:21:56.778Z,894.3333333333334
2023-03-19T10:24:57.485Z,897.3333333333334
2023-03-19T10:27:56.912Z,929
2023-03-19T10:30:58.324Z,906.6666666666666
2023-03-19T10:33:57.072Z,895.3333333333334
2023-03-19T10:36:57.522Z,905
2023-03-19T10:39:57.532Z,878.3333333333334
2023-03-19T10:42:56.960Z,830.6666666666666
2023-03-19T10:45:57.457Z,764.3333333333334
2023-03-19T10:48:56.812Z,660.3333333333334
2023-03-19T10:51:57.341Z,648.6666666666666
2023-03-19T10:54:56.911Z,588.6666666666666
2023-03-19T10:57:58.118Z,623.3333333333334
2023-03-19T11:00:57.332Z,595
2023-03-19T11:04:16.315Z,620.6666666666666
2023-03-19T11:06:57.215Z,624.6666666666666
2023-03-19T11:09:57.386Z,642.6666666666666
2023-03-19T11:12:56.823Z,667.6666666666666
2023-03-19T11:15:57.378Z,603.3333333333334
2023-03-19T11:18:57.039Z,712
2023-03-19T11:21:57.579Z,610
2023-03-19T11:24:57.285Z,765.3333333333334
2023-03-19T11:27:57.499Z,844.6666666666666
2023-03-19T11:30:57.436Z,895
2023-03-19T11:33:57.063Z,826
2023-03-19T11:36:57.303Z,651.3333333333334
2023-03-19T11:39:57.171Z,639.3333333333334
2023-03-19T11:42:56.982Z,650
2023-03-19T11:45:57.402Z,674.3333333333334
2023-03-19T11:48:56.797Z,832.3333333333334
2023-03-19T11:51:56.764Z,740
2023-03-19T11:54:57.583Z,757.3333333333334
2023-03-19T11:57:56.771Z,749
2023-03-19T12:00:58.024Z,697
2023-03-19T12:03:57.526Z,728.3333333333334
2023-03-19T12:06:57.400Z,762.3333333333334
2023-03-19T12:09:57.243Z,795
2023-03-19T12:12:57.231Z,836
2023-03-19T12:15:57.687Z,791.6666666666666
2023-03-19T12:18:56.991Z,783.6666666666666
2023-03-19T12:21:58.206Z,770
2023-03-19T12:24:57.023Z,761.6666666666666
2023-03-19T12:27:57.036Z,764.6666666666666
2023-03-19T12:30:57.891Z,775
2023-03-19T12:33:57.036Z,801.3333333333334
2023-03-19T12:36:57.215Z,863
2023-03-19T12:39:57.829Z,932.3333333333334
2023-03-19T12:42:57.383Z,935.3333333333334
2023-03-19T12:45:58.411Z,904.3333333333334
2023-03-19T12:48:56.793Z,844.6666666666666
2023-03-19T12:51:57.723Z,802.3333333333334
2023-03-19T12:54:57.697Z,779
2023-03-19T12:57:56.938Z,763.3333333333334
2023-03-19T13:00:57.786Z,784
2023-03-19T13:03:57.768Z,821.6666666666666
2023-03-19T13:06:56.849Z,860.6666666666666
2023-03-19T13:09:57.950Z,853
2023-03-19T13:12:57.596Z,849.6666666666666
2023-03-19T13:15:57.068Z,837
2023-03-19T13:18:56.793Z,864.6666666666666
2023-03-19T13:21:57.204Z,804.6666666666666
2023-03-19T13:24:57.271Z,759
2023-03-19T13:27:57.689Z,722.6666666666666
2023-03-19T13:30:57.164Z,698.6666666666666
2023-03-19T13:33:58.328Z,667.3333333333334
2023-03-19T13:36:57.039Z,631.6666666666666
2023-03-19T13:39:58.595Z,638
2023-03-19T13:42:56.973Z,649.6666666666666
2023-03-19T13:45:57.781Z,682
2023-03-19T13:48:57.184Z,692
2023-03-19T13:51:57.876Z,708
2023-03-19T13:54:57.501Z,758.3333333333334
2023-03-19T13:57:57.617Z,792
2023-03-19T14:00:57.809Z,807
2023-03-19T14:03:57.753Z,726.6666666666666
2023-03-19T14:06:57.187Z,700.3333333333334
2023-03-19T14:09:57.695Z,696.6666666666666
2023-03-19T14:12:57.312Z,659.6666666666666
2023-03-19T14:15:57.401Z,633.6666666666666
2023-03-19T14:18:58.392Z,591
2023-03-19T14:21:57.868Z,588.3333333333334
2023-03-19T14:24:58.148Z,540.3333333333334
2023-03-19T14:27:56.758Z,492
2023-03-19T14:30:57.278Z,495.3333333333333
2023-03-19T14:33:57.585Z,480.3333333333333
2023-03-19T14:36:57.088Z,430.6666666666667
2023-03-19T14:39:57.751Z,428.6666666666667
2023-03-19T14:42:57.206Z,450.3333333333333
2023-03-19T14:45:57.671Z,450.3333333333333
2023-03-19T14:48:57.418Z,415
2023-03-19T14:51:57.200Z,360
2023-03-19T14:54:58.020Z,343
2023-03-19T14:57:56.994Z,319
2023-03-19T15:00:57.714Z,284
2023-03-19T15:03:56.950Z,259
2023-03-19T15:06:57.615Z,234.66666666666666
2023-03-19T15:09:57.839Z,235.33333333333334
2023-03-19T15:12:57.165Z,235
2023-03-19T15:15:57.384Z,224.33333333333334
2023-03-19T15:18:57.388Z,230.33333333333334
2023-03-19T15:21:57.193Z,248.33333333333334
2023-03-19T15:24:56.698Z,261
2023-03-19T15:27:56.743Z,252.66666666666666
2023-03-19T15:31:03.569Z,210.66666666666666
2023-03-19T15:33:57.233Z,154
2023-03-19T15:36:56.876Z,118
2023-03-19T15:39:57.449Z,104.66666666666667
2023-03-19T15:42:59.796Z,104
2023-03-19T15:45:57.685Z,110.66666666666667
2023-03-19T15:48:56.876Z,102
2023-03-19T15:51:57.163Z,77.66666666666667
2023-03-19T15:54:57.362Z,72.66666666666667
2023-03-19T15:57:57.750Z,75
2023-03-19T16:00:57.407Z,68
2023-03-19T16:03:57.940Z,67.33333333333333
2023-03-19T16:06:57.066Z,70.66666666666667
2023-03-19T16:09:57.134Z,68.66666666666667
2023-03-19T16:12:57.636Z,59.333333333333336
2023-03-19T16:15:56.752Z,58.333333333333336
2023-03-19T16:18:56.868Z,64.66666666666667
2023-03-19T16:21:57.044Z,69
2023-03-19T16:24:57.763Z,68
2023-03-19T16:27:57.067Z,63.666666666666664
2023-03-19T16:30:57.700Z,57.333333333333336
2023-03-19T16:33:57.059Z,40.333333333333336
2023-03-19T16:36:57.384Z,28.666666666666668
2023-03-19T16:39:57.655Z,23
2023-03-19T16:42:56.916Z,24.333333333333332
2023-03-19T16:45:57.541Z,31.333333333333332
2023-03-19T16:48:57.087Z,41
2023-03-19T16:51:57.402Z,45
2023-03-19T16:54:57.429Z,44
2023-03-19T16:57:56.677Z,37.333333333333336
2023-03-19T17:00:57.081Z,30.333333333333332
2023-03-19T17:03:57.280Z,23.333333333333332
2023-03-19T17:06:57.960Z,19
2023-03-19T17:09:58.055Z,13.666666666666666
2023-03-19T17:12:56.790Z,9.666666666666666
2023-03-19T17:15:57.550Z,6.666666666666667
2023-03-19T17:18:56.928Z,5
2023-03-19T17:21:57.095Z,3
2023-03-19T17:24:57.918Z,1.6666666666666667
2023-03-19T17:27:57.797Z,1.3333333333333333
2023-03-19T17:30:57.334Z,1.3333333333333333
2023-03-19T17:33:57.786Z,1
2023-03-19T17:36:57.048Z,1
2023-03-19T17:39:57.318Z,1.3333333333333333
2023-03-19T17:42:56.811Z,1
2023-03-19T17:45:57.429Z,0.3333333333333333
2023-03-19T17:48:57.564Z,0.3333333333333333
2023-03-19T17:51:57.402Z,0
2023-03-19T17:54:57.654Z,0
2023-03-19T17:57:56.980Z,0
2023-03-19T18:00:57.616Z,0
2023-03-19T18:04:02.327Z,0
2023-03-19T18:06:57.513Z,0
2023-03-19T18:09:57.707Z,0.3333333333333333
2023-03-19T18:12:57.347Z,0.6666666666666666
2023-03-19T18:15:57.317Z,0
2023-03-19T18:18:58.100Z,0
2023-03-19T18:21:57.500Z,0
2023-03-19T18:24:57.522Z,0
2023-03-19T18:27:56.868Z,0
2023-03-19T18:30:57.738Z,0
2023-03-19T18:33:57.070Z,0
2023-03-19T18:36:57.439Z,0
2023-03-19T18:39:57.340Z,0
2023-03-19T18:42:57.900Z,0
2023-03-19T18:45:57.058Z,0
2023-03-19T18:48:57.457Z,0
2023-03-19T18:52:03.386Z,0
2023-03-19T18:54:57.736Z,0.3333333333333333
2023-03-19T18:57:57.212Z,0
2023-03-19T19:01:25.607Z,0
2023-03-19T19:03:57.623Z,0.3333333333333333
2023-03-19T19:06:56.869Z,0
2023-03-19T19:09:57.552Z,0.3333333333333333
2023-03-19T19:12:57.882Z,0.6666666666666666
2023-03-19T19:15:57.484Z,0
2023-03-19T19:18:57.670Z,0
2023-03-19T19:21:57.104Z,0
2023-03-19T19:24:57.212Z,0
2023-03-19T19:27:57.897Z,0.3333333333333333
2023-03-19T19:30:57.799Z,0
2023-03-19T19:33:56.940Z,0.3333333333333333
2023-03-19T19:36:57.234Z,0
2023-03-19T19:39:57.423Z,0.3333333333333333
2023-03-19T19:42:57.028Z,0
2023-03-19T19:45:57.266Z,0
2023-03-19T19:48:57.112Z,0
2023-03-19T19:51:57.557Z,0
2023-03-19T19:54:57.855Z,0
2023-03-19T19:57:57.235Z,0
2023-03-19T20:01:03.713Z,0
2023-03-19T20:03:57.225Z,0
2023-03-19T20:06:57.803Z,0
2023-03-19T20:09:56.945Z,0
2023-03-19T20:12:57.505Z,0
2023-03-19T20:15:57.104Z,0
2023-03-19T20:18:57.242Z,0
2023-03-19T20:21:57.590Z,0
2023-03-19T20:24:57.815Z,0.3333333333333333
2023-03-19T20:27:58.040Z,0
2023-03-19T20:30:58.093Z,0
2023-03-19T20:33:57.615Z,0
2023-03-19T20:36:56.884Z,0
2023-03-19T20:39:57.625Z,0
2023-03-19T20:42:57.039Z,0
2023-03-19T20:45:57.145Z,0
2023-03-19T20:48:57.551Z,0
2023-03-19T20:51:56.841Z,0
2023-03-19T20:54:59.049Z,0
2023-03-19T20:57:57.056Z,0
2023-03-19T21:00:57.363Z,0
2023-03-19T21:03:57.504Z,0
2023-03-19T21:06:57.954Z,0
2023-03-19T21:09:57.768Z,0
2023-03-19T21:12:57.558Z,0
2023-03-19T21:15:57.650Z,0
2023-03-19T21:18:56.913Z,0
2023-03-19T21:21:57.922Z,0
2023-03-19T21:24:56.908Z,0
2023-03-19T21:27:57.059Z,0
2023-03-19T21:30:57.795Z,0
2023-03-19T21:33:58.522Z,0
2023-03-19T21:36:57.086Z,0
2023-03-19T21:39:57.698Z,0
2023-03-19T21:42:57.178Z,0
2023-03-19T21:45:57.132Z,0
2023-03-19T21:49:11.893Z,0
2023-03-19T21:51:56.809Z,0
2023-03-19T21:54:57.209Z,0.3333333333333333
2023-03-19T21:57:56.717Z,0
2023-03-19T22:00:57.395Z,0
2023-03-19T22:03:57.707Z,0
2023-03-19T22:06:57.556Z,0
2023-03-19T22:09:57.497Z,0
2023-03-19T22:12:57.262Z,0
2023-03-19T22:15:57.995Z,0
2023-03-19T22:18:57.778Z,0
2023-03-19T22:21:56.923Z,0
2023-03-19T22:24:56.870Z,0
2023-03-19T22:27:56.997Z,0
2023-03-19T22:31:03.188Z,0
2023-03-19T22:33:57.539Z,0
2023-03-19T22:36:57.631Z,0
2023-03-19T22:39:57.273Z,0
2023-03-19T22:42:57.622Z,0
2023-03-19T22:45:58.012Z,0
2023-03-19T22:48:58.370Z,0
2023-03-19T22:51:56.756Z,0
2023-03-19T22:54:57.203Z,0
2023-03-19T22:57:57.710Z,0.3333333333333333
2023-03-19T23:00:58.027Z,0
2023-03-19T23:03:57.258Z,0
2023-03-19T23:06:57.835Z,0
2023-03-19T23:09:57.216Z,0
2023-03-19T23:12:57.766Z,0
2023-03-19T23:15:57.790Z,0
2023-03-19T23:18:57.894Z,0
2023-03-19T23:21:57.555Z,0
2023-03-19T23:24:57.467Z,0
2023-03-19T23:27:57.285Z,0
2023-03-19T23:30:57.906Z,0
2023-03-19T23:33:57.732Z,0
2023-03-19T23:36:56.965Z,0.3333333333333333
2023-03-19T23:39:57.016Z,0
2023-03-19T23:42:57.262Z,0
2023-03-19T23:45:57.565Z,0
2023-03-19T23:48:56.991Z,0
2023-03-19T23:51:57.149Z,0.3333333333333333
2023-03-19T23:54:56.908Z,0
2023-03-19T23:57:57.889Z,0
